sensor_id;sensor_type;location;lat;lon;timestamp;P1;durP1;ratioP1;P2;durP2;ratioP2
5391;SDS011;2719;53.624;9.786;2023-04-01T00:02:23;4.17;;;2.60;;
5391;SDS011;2719;53.624;9.786;2023-04-01T00:04:50;8.30;;;2.63;;
5391;SDS011;2719;53.624;9.786;2023-04-01T00:07:16;3.20;;;1.90;;
5391;SDS011;2719;53.624;9.786;2023-04-01T00:09:43;4.43;;;2.20;;
5391;SDS011;2719;53.624;9.786;2023-04-01T00:12:10;5.43;;;1.93;;
5391;SDS011;2719;53.624;9.786;2023-04-01T00:14:37;6.17;;;2.17;;
5391;SDS011;2719;53.624;9.786;2023-04-01T00:17:06;5.60;;;2.63;;
5391;SDS011;2719;53.624;9.786;2023-04-01T00:19:32;6.27;;;2.10;;
5391;SDS011;2719;53.624;9.786;2023-04-01T00:21:59;5.27;;;2.40;;
5391;SDS011;2719;53.624;9.786;2023-04-01T00:24:26;4.50;;;1.80;;
5391;SDS011;2719;53.624;9.786;2023-04-01T00:26:53;3.83;;;2.00;;
5391;SDS011;2719;53.624;9.786;2023-04-01T00:29:20;7.40;;;2.23;;
5391;SDS011;2719;53.624;9.786;2023-04-01T00:31:49;5.63;;;2.33;;
5391;SDS011;2719;53.624;9.786;2023-04-01T00:34:17;6.90;;;1.60;;
5391;SDS011;2719;53.624;9.786;2023-04-01T00:36:43;5.67;;;2.13;;
5391;SDS011;2719;53.624;9.786;2023-04-01T00:39:10;5.43;;;2.17;;
5391;SDS011;2719;53.624;9.786;2023-04-01T00:41:36;5.33;;;2.50;;
5391;SDS011;2719;53.624;9.786;2023-04-01T00:44:16;7.93;;;3.03;;
5391;SDS011;2719;53.624;9.786;2023-04-01T00:46:45;6.77;;;2.80;;
5391;SDS011;2719;53.624;9.786;2023-04-01T00:49:12;9.03;;;2.10;;
5391;SDS011;2719;53.624;9.786;2023-04-01T00:51:41;5.20;;;1.90;;
5391;SDS011;2719;53.624;9.786;2023-04-01T00:54:09;8.93;;;2.40;;
5391;SDS011;2719;53.624;9.786;2023-04-01T00:56:36;6.60;;;2.33;;
5391;SDS011;2719;53.624;9.786;2023-04-01T00:59:10;6.77;;;2.33;;
5391;SDS011;2719;53.624;9.786;2023-04-01T01:01:40;5.80;;;2.30;;
5391;SDS011;2719;53.624;9.786;2023-04-01T01:04:07;10.30;;;3.17;;
5391;SDS011;2719;53.624;9.786;2023-04-01T01:06:53;7.80;;;3.30;;
5391;SDS011;2719;53.624;9.786;2023-04-01T01:09:30;15.00;;;4.00;;
5391;SDS011;2719;53.624;9.786;2023-04-01T01:12:06;7.50;;;4.00;;
5391;SDS011;2719;53.624;9.786;2023-04-01T01:14:40;11.40;;;3.20;;
5391;SDS011;2719;53.624;9.786;2023-04-01T01:17:19;9.90;;;3.63;;
5391;SDS011;2719;53.624;9.786;2023-04-01T01:19:57;3.40;;;2.27;;
5391;SDS011;2719;53.624;9.786;2023-04-01T01:22:49;7.43;;;3.30;;
5391;SDS011;2719;53.624;9.786;2023-04-01T01:25:31;6.20;;;3.20;;
5391;SDS011;2719;53.624;9.786;2023-04-01T01:28:13;19.23;;;3.33;;
5391;SDS011;2719;53.624;9.786;2023-04-01T01:30:50;9.33;;;2.70;;
5391;SDS011;2719;53.624;9.786;2023-04-01T01:33:30;7.10;;;2.60;;
5391;SDS011;2719;53.624;9.786;2023-04-01T01:36:10;6.73;;;3.07;;
5391;SDS011;2719;53.624;9.786;2023-04-01T01:38:39;5.67;;;2.67;;
5391;SDS011;2719;53.624;9.786;2023-04-01T01:41:07;6.80;;;3.67;;
5391;SDS011;2719;53.624;9.786;2023-04-01T01:43:36;7.10;;;2.87;;
5391;SDS011;2719;53.624;9.786;2023-04-01T01:46:06;4.43;;;2.50;;
5391;SDS011;2719;53.624;9.786;2023-04-01T01:48:36;7.33;;;3.20;;
5391;SDS011;2719;53.624;9.786;2023-04-01T01:51:04;10.30;;;4.87;;
5391;SDS011;2719;53.624;9.786;2023-04-01T01:53:34;4.93;;;2.43;;
5391;SDS011;2719;53.624;9.786;2023-04-01T01:56:01;6.10;;;3.10;;
5391;SDS011;2719;53.624;9.786;2023-04-01T01:58:29;10.60;;;3.63;;
5391;SDS011;2719;53.624;9.786;2023-04-01T02:01:00;6.70;;;3.07;;
5391;SDS011;2719;53.624;9.786;2023-04-01T02:03:31;7.30;;;3.23;;
5391;SDS011;2719;53.624;9.786;2023-04-01T02:06:00;6.70;;;2.63;;
5391;SDS011;2719;53.624;9.786;2023-04-01T02:08:30;5.70;;;2.50;;
5391;SDS011;2719;53.624;9.786;2023-04-01T02:11:03;7.37;;;3.20;;
5391;SDS011;2719;53.624;9.786;2023-04-01T02:13:33;8.73;;;2.87;;
5391;SDS011;2719;53.624;9.786;2023-04-01T02:16:05;8.30;;;2.50;;
5391;SDS011;2719;53.624;9.786;2023-04-01T02:18:38;11.17;;;3.10;;
5391;SDS011;2719;53.624;9.786;2023-04-01T02:21:07;5.23;;;3.10;;
5391;SDS011;2719;53.624;9.786;2023-04-01T02:23:36;9.30;;;3.13;;
5391;SDS011;2719;53.624;9.786;2023-04-01T02:26:05;7.33;;;3.40;;
5391;SDS011;2719;53.624;9.786;2023-04-01T02:28:34;6.70;;;3.40;;
5391;SDS011;2719;53.624;9.786;2023-04-01T02:31:02;10.10;;;3.60;;
5391;SDS011;2719;53.624;9.786;2023-04-01T02:33:30;13.00;;;3.47;;
5391;SDS011;2719;53.624;9.786;2023-04-01T02:35:57;5.23;;;2.73;;
5391;SDS011;2719;53.624;9.786;2023-04-01T02:38:24;6.33;;;3.30;;
5391;SDS011;2719;53.624;9.786;2023-04-01T02:40:56;8.90;;;2.93;;
5391;SDS011;2719;53.624;9.786;2023-04-01T02:43:25;9.23;;;2.90;;
5391;SDS011;2719;53.624;9.786;2023-04-01T02:45:53;8.27;;;3.30;;
5391;SDS011;2719;53.624;9.786;2023-04-01T02:48:20;11.30;;;3.23;;
5391;SDS011;2719;53.624;9.786;2023-04-01T02:50:47;7.63;;;3.17;;
5391;SDS011;2719;53.624;9.786;2023-04-01T02:53:13;7.43;;;3.10;;
5391;SDS011;2719;53.624;9.786;2023-04-01T02:55:40;11.90;;;2.93;;
5391;SDS011;2719;53.624;9.786;2023-04-01T02:58:08;8.10;;;3.30;;
5391;SDS011;2719;53.624;9.786;2023-04-01T03:00:35;8.13;;;3.40;;
5391;SDS011;2719;53.624;9.786;2023-04-01T03:03:02;7.83;;;2.70;;
5391;SDS011;2719;53.624;9.786;2023-04-01T03:05:28;7.50;;;3.20;;
5391;SDS011;2719;53.624;9.786;2023-04-01T03:07:55;5.23;;;2.70;;
5391;SDS011;2719;53.624;9.786;2023-04-01T03:10:22;7.67;;;3.40;;
5391;SDS011;2719;53.624;9.786;2023-04-01T03:12:49;6.80;;;3.60;;
5391;SDS011;2719;53.624;9.786;2023-04-01T03:15:16;6.60;;;3.47;;
5391;SDS011;2719;53.624;9.786;2023-04-01T03:17:43;8.80;;;3.20;;
5391;SDS011;2719;53.624;9.786;2023-04-01T03:20:11;7.47;;;2.70;;
5391;SDS011;2719;53.624;9.786;2023-04-01T03:22:39;6.20;;;3.07;;
5391;SDS011;2719;53.624;9.786;2023-04-01T03:25:06;4.27;;;2.83;;
5391;SDS011;2719;53.624;9.786;2023-04-01T03:27:33;3.60;;;2.60;;
5391;SDS011;2719;53.624;9.786;2023-04-01T03:30:00;4.27;;;2.53;;
5391;SDS011;2719;53.624;9.786;2023-04-01T03:32:28;5.03;;;2.80;;
5391;SDS011;2719;53.624;9.786;2023-04-01T03:34:55;8.40;;;2.83;;
5391;SDS011;2719;53.624;9.786;2023-04-01T03:37:22;8.93;;;3.03;;
5391;SDS011;2719;53.624;9.786;2023-04-01T03:39:49;8.93;;;3.47;;
5391;SDS011;2719;53.624;9.786;2023-04-01T03:42:16;5.87;;;2.83;;
5391;SDS011;2719;53.624;9.786;2023-04-01T03:44:43;8.87;;;2.40;;
5391;SDS011;2719;53.624;9.786;2023-04-01T03:47:10;9.57;;;3.00;;
5391;SDS011;2719;53.624;9.786;2023-04-01T03:49:38;5.30;;;2.83;;
5391;SDS011;2719;53.624;9.786;2023-04-01T03:52:07;7.90;;;3.53;;
5391;SDS011;2719;53.624;9.786;2023-04-01T03:54:35;15.57;;;3.60;;
5391;SDS011;2719;53.624;9.786;2023-04-01T03:57:02;6.50;;;2.83;;
5391;SDS011;2719;53.624;9.786;2023-04-01T03:59:29;6.63;;;3.30;;
5391;SDS011;2719;53.624;9.786;2023-04-01T04:01:55;6.43;;;2.90;;
5391;SDS011;2719;53.624;9.786;2023-04-01T04:04:22;9.77;;;3.60;;
5391;SDS011;2719;53.624;9.786;2023-04-01T04:06:50;5.07;;;2.60;;
5391;SDS011;2719;53.624;9.786;2023-04-01T04:09:17;6.57;;;3.73;;
5391;SDS011;2719;53.624;9.786;2023-04-01T04:11:43;9.90;;;3.03;;
5391;SDS011;2719;53.624;9.786;2023-04-01T04:14:10;8.10;;;3.30;;
5391;SDS011;2719;53.624;9.786;2023-04-01T04:16:37;6.13;;;3.30;;
5391;SDS011;2719;53.624;9.786;2023-04-01T04:19:03;8.93;;;3.17;;
5391;SDS011;2719;53.624;9.786;2023-04-01T04:21:30;9.60;;;2.70;;
5391;SDS011;2719;53.624;9.786;2023-04-01T04:23:59;6.60;;;2.73;;
5391;SDS011;2719;53.624;9.786;2023-04-01T04:26:26;8.23;;;2.80;;
5391;SDS011;2719;53.624;9.786;2023-04-01T04:28:53;7.27;;;2.53;;
5391;SDS011;2719;53.624;9.786;2023-04-01T04:31:21;5.80;;;3.20;;
5391;SDS011;2719;53.624;9.786;2023-04-01T04:33:48;4.37;;;2.20;;
5391;SDS011;2719;53.624;9.786;2023-04-01T04:36:16;6.30;;;2.70;;
5391;SDS011;2719;53.624;9.786;2023-04-01T04:38:43;3.87;;;1.77;;
5391;SDS011;2719;53.624;9.786;2023-04-01T04:41:11;5.63;;;2.50;;
5391;SDS011;2719;53.624;9.786;2023-04-01T04:43:40;4.40;;;2.57;;
5391;SDS011;2719;53.624;9.786;2023-04-01T04:46:07;5.33;;;2.30;;
5391;SDS011;2719;53.624;9.786;2023-04-01T04:48:34;4.30;;;2.70;;
5391;SDS011;2719;53.624;9.786;2023-04-01T04:51:01;7.60;;;2.83;;
5391;SDS011;2719;53.624;9.786;2023-04-01T04:53:28;2.87;;;1.83;;
5391;SDS011;2719;53.624;9.786;2023-04-01T04:55:55;6.87;;;1.00;;
5391;SDS011;2719;53.624;9.786;2023-04-01T04:58:23;1.47;;;0.77;;
5391;SDS011;2719;53.624;9.786;2023-04-01T05:00:50;1.37;;;0.63;;
5391;SDS011;2719;53.624;9.786;2023-04-01T05:03:16;1.10;;;0.60;;
5391;SDS011;2719;53.624;9.786;2023-04-01T05:05:48;1.47;;;0.60;;
5391;SDS011;2719;53.624;9.786;2023-04-01T05:08:15;2.03;;;0.50;;
5391;SDS011;2719;53.624;9.786;2023-04-01T05:10:42;1.10;;;0.60;;
5391;SDS011;2719;53.624;9.786;2023-04-01T05:13:09;1.20;;;0.40;;
5391;SDS011;2719;53.624;9.786;2023-04-01T05:15:37;0.80;;;0.50;;
5391;SDS011;2719;53.624;9.786;2023-04-01T05:18:04;1.60;;;0.40;;
5391;SDS011;2719;53.624;9.786;2023-04-01T05:20:31;1.30;;;0.50;;
5391;SDS011;2719;53.624;9.786;2023-04-01T05:22:58;0.90;;;0.43;;
5391;SDS011;2719;53.624;9.786;2023-04-01T05:25:25;1.20;;;0.50;;
5391;SDS011;2719;53.624;9.786;2023-04-01T05:27:52;2.60;;;0.40;;
5391;SDS011;2719;53.624;9.786;2023-04-01T05:30:18;0.80;;;0.43;;
5391;SDS011;2719;53.624;9.786;2023-04-01T05:32:46;0.70;;;0.40;;
5391;SDS011;2719;53.624;9.786;2023-04-01T05:35:13;1.90;;;0.67;;
5391;SDS011;2719;53.624;9.786;2023-04-01T05:37:40;0.80;;;0.40;;
5391;SDS011;2719;53.624;9.786;2023-04-01T05:40:07;1.43;;;0.60;;
5391;SDS011;2719;53.624;9.786;2023-04-01T05:42:35;1.03;;;0.60;;
5391;SDS011;2719;53.624;9.786;2023-04-01T05:45:01;0.87;;;0.40;;
5391;SDS011;2719;53.624;9.786;2023-04-01T05:47:28;1.37;;;0.60;;
5391;SDS011;2719;53.624;9.786;2023-04-01T05:49:56;0.83;;;0.40;;
5391;SDS011;2719;53.624;9.786;2023-04-01T05:52:23;1.00;;;0.50;;
5391;SDS011;2719;53.624;9.786;2023-04-01T05:54:50;3.33;;;0.60;;
5391;SDS011;2719;53.624;9.786;2023-04-01T05:57:16;1.40;;;0.60;;
5391;SDS011;2719;53.624;9.786;2023-04-01T05:59:43;1.97;;;0.53;;
5391;SDS011;2719;53.624;9.786;2023-04-01T06:02:10;1.23;;;0.50;;
5391;SDS011;2719;53.624;9.786;2023-04-01T06:04:38;2.70;;;0.50;;
5391;SDS011;2719;53.624;9.786;2023-04-01T06:07:11;0.80;;;0.40;;
5391;SDS011;2719;53.624;9.786;2023-04-01T06:09:39;1.00;;;0.50;;
5391;SDS011;2719;53.624;9.786;2023-04-01T06:12:10;0.90;;;0.40;;
5391;SDS011;2719;53.624;9.786;2023-04-01T06:14:49;0.97;;;0.40;;
5391;SDS011;2719;53.624;9.786;2023-04-01T06:17:26;0.70;;;0.30;;
5391;SDS011;2719;53.624;9.786;2023-04-01T06:19:59;2.60;;;0.50;;
5391;SDS011;2719;53.624;9.786;2023-04-01T06:22:49;0.80;;;0.30;;
5391;SDS011;2719;53.624;9.786;2023-04-01T06:28:29;0.90;;;0.40;;
5391;SDS011;2719;53.624;9.786;2023-04-01T06:31:10;0.80;;;0.40;;
5391;SDS011;2719;53.624;9.786;2023-04-01T06:33:46;1.27;;;0.50;;
5391;SDS011;2719;53.624;9.786;2023-04-01T06:36:36;0.80;;;0.40;;
5391;SDS011;2719;53.624;9.786;2023-04-01T06:39:30;0.80;;;0.40;;
5391;SDS011;2719;53.624;9.786;2023-04-01T06:45:06;0.90;;;0.40;;
5391;SDS011;2719;53.624;9.786;2023-04-01T06:47:48;0.80;;;0.40;;
5391;SDS011;2719;53.624;9.786;2023-04-01T06:50:24;0.70;;;0.30;;
5391;SDS011;2719;53.624;9.786;2023-04-01T06:52:58;0.93;;;0.37;;
5391;SDS011;2719;53.624;9.786;2023-04-01T06:55:34;5.07;;;0.50;;
5391;SDS011;2719;53.624;9.786;2023-04-01T06:58:06;0.80;;;0.40;;
5391;SDS011;2719;53.624;9.786;2023-04-01T07:00:44;1.13;;;0.40;;
5391;SDS011;2719;53.624;9.786;2023-04-01T07:03:16;1.10;;;0.30;;
5391;SDS011;2719;53.624;9.786;2023-04-01T07:05:47;1.90;;;0.40;;
5391;SDS011;2719;53.624;9.786;2023-04-01T07:08:16;0.70;;;0.30;;
5391;SDS011;2719;53.624;9.786;2023-04-01T07:10:50;0.80;;;0.30;;
5391;SDS011;2719;53.624;9.786;2023-04-01T07:13:20;0.70;;;0.30;;
5391;SDS011;2719;53.624;9.786;2023-04-01T07:15:54;0.90;;;0.50;;
5391;SDS011;2719;53.624;9.786;2023-04-01T07:18:32;1.70;;;0.60;;
5391;SDS011;2719;53.624;9.786;2023-04-01T07:21:03;1.63;;;0.70;;
5391;SDS011;2719;53.624;9.786;2023-04-01T07:23:36;0.80;;;0.40;;
5391;SDS011;2719;53.624;9.786;2023-04-01T07:26:11;2.17;;;0.50;;
5391;SDS011;2719;53.624;9.786;2023-04-01T07:28:42;0.70;;;0.30;;
5391;SDS011;2719;53.624;9.786;2023-04-01T07:31:13;2.37;;;0.90;;
5391;SDS011;2719;53.624;9.786;2023-04-01T07:33:49;4.87;;;1.97;;
5391;SDS011;2719;53.624;9.786;2023-04-01T07:36:22;1.30;;;0.70;;
5391;SDS011;2719;53.624;9.786;2023-04-01T07:38:59;0.97;;;0.30;;
5391;SDS011;2719;53.624;9.786;2023-04-01T07:41:41;0.80;;;0.30;;
5391;SDS011;2719;53.624;9.786;2023-04-01T07:44:19;0.80;;;0.40;;
5391;SDS011;2719;53.624;9.786;2023-04-01T07:46:59;0.90;;;0.40;;
5391;SDS011;2719;53.624;9.786;2023-04-01T07:49:36;1.10;;;0.40;;
5391;SDS011;2719;53.624;9.786;2023-04-01T07:52:14;1.20;;;0.60;;
5391;SDS011;2719;53.624;9.786;2023-04-01T07:54:47;1.37;;;0.40;;
5391;SDS011;2719;53.624;9.786;2023-04-01T07:57:21;2.90;;;0.43;;
5391;SDS011;2719;53.624;9.786;2023-04-01T07:59:56;0.80;;;0.40;;
5391;SDS011;2719;53.624;9.786;2023-04-01T08:02:34;1.23;;;0.40;;
5391;SDS011;2719;53.624;9.786;2023-04-01T08:05:14;0.90;;;0.40;;
5391;SDS011;2719;53.624;9.786;2023-04-01T08:07:52;0.90;;;0.40;;
5391;SDS011;2719;53.624;9.786;2023-04-01T08:10:28;1.57;;;0.30;;
5391;SDS011;2719;53.624;9.786;2023-04-01T08:13:02;0.80;;;0.33;;
5391;SDS011;2719;53.624;9.786;2023-04-01T08:15:38;0.90;;;0.40;;
5391;SDS011;2719;53.624;9.786;2023-04-01T08:18:17;1.10;;;0.40;;
5391;SDS011;2719;53.624;9.786;2023-04-01T08:20:53;1.00;;;0.40;;
5391;SDS011;2719;53.624;9.786;2023-04-01T08:23:24;0.80;;;0.40;;
5391;SDS011;2719;53.624;9.786;2023-04-01T08:25:55;0.80;;;0.40;;
5391;SDS011;2719;53.624;9.786;2023-04-01T08:28:29;0.90;;;0.53;;
5391;SDS011;2719;53.624;9.786;2023-04-01T08:31:01;2.93;;;0.37;;
5391;SDS011;2719;53.624;9.786;2023-04-01T08:33:32;0.90;;;0.30;;
5391;SDS011;2719;53.624;9.786;2023-04-01T08:36:02;1.57;;;0.40;;
5391;SDS011;2719;53.624;9.786;2023-04-01T08:38:32;0.70;;;0.30;;
5391;SDS011;2719;53.624;9.786;2023-04-01T08:41:07;0.80;;;0.30;;
5391;SDS011;2719;53.624;9.786;2023-04-01T08:47:04;1.67;;;0.40;;
5391;SDS011;2719;53.624;9.786;2023-04-01T08:49:56;1.40;;;0.40;;
5391;SDS011;2719;53.624;9.786;2023-04-01T08:52:48;1.17;;;0.43;;
5391;SDS011;2719;53.624;9.786;2023-04-01T08:55:27;0.80;;;0.37;;
5391;SDS011;2719;53.624;9.786;2023-04-01T08:58:17;0.70;;;0.33;;
5391;SDS011;2719;53.624;9.786;2023-04-01T09:01:13;0.97;;;0.40;;
5391;SDS011;2719;53.624;9.786;2023-04-01T09:03:57;0.70;;;0.40;;
5391;SDS011;2719;53.624;9.786;2023-04-01T09:06:42;0.70;;;0.30;;
5391;SDS011;2719;53.624;9.786;2023-04-01T09:12:19;1.90;;;0.50;;
5391;SDS011;2719;53.624;9.786;2023-04-01T09:15:02;0.90;;;0.33;;
5391;SDS011;2719;53.624;9.786;2023-04-01T09:17:49;0.90;;;0.43;;
5391;SDS011;2719;53.624;9.786;2023-04-01T09:20:31;0.80;;;0.30;;
5391;SDS011;2719;53.624;9.786;2023-04-01T09:23:16;0.83;;;0.30;;
5391;SDS011;2719;53.624;9.786;2023-04-01T09:26:01;1.37;;;0.43;;
5391;SDS011;2719;53.624;9.786;2023-04-01T09:28:53;2.23;;;0.40;;
5391;SDS011;2719;53.624;9.786;2023-04-01T09:31:38;1.87;;;0.30;;
5391;SDS011;2719;53.624;9.786;2023-04-01T09:34:31;0.80;;;0.30;;
5391;SDS011;2719;53.624;9.786;2023-04-01T09:37:20;0.90;;;0.40;;
5391;SDS011;2719;53.624;9.786;2023-04-01T09:43:11;0.80;;;0.30;;
5391;SDS011;2719;53.624;9.786;2023-04-01T09:45:57;1.83;;;0.40;;
5391;SDS011;2719;53.624;9.786;2023-04-01T09:48:46;0.70;;;0.30;;
5391;SDS011;2719;53.624;9.786;2023-04-01T09:51:42;3.67;;;0.40;;
5391;SDS011;2719;53.624;9.786;2023-04-01T09:54:23;0.80;;;0.30;;
5391;SDS011;2719;53.624;9.786;2023-04-01T09:57:02;0.90;;;0.30;;
5391;SDS011;2719;53.624;9.786;2023-04-01T10:00:00;0.80;;;0.30;;
5391;SDS011;2719;53.624;9.786;2023-04-01T10:09:27;0.70;;;0.30;;
5391;SDS011;2719;53.624;9.786;2023-04-01T10:12:21;0.70;;;0.30;;
5391;SDS011;2719;53.624;9.786;2023-04-01T10:15:26;0.70;;;0.40;;
5391;SDS011;2719;53.624;9.786;2023-04-01T10:18:19;1.20;;;0.40;;
5391;SDS011;2719;53.624;9.786;2023-04-01T10:21:21;1.60;;;0.40;;
5391;SDS011;2719;53.624;9.786;2023-04-01T10:24:17;0.80;;;0.40;;
5391;SDS011;2719;53.624;9.786;2023-04-01T10:27:09;0.70;;;0.30;;
5391;SDS011;2719;53.624;9.786;2023-04-01T10:33:17;0.70;;;0.20;;
5391;SDS011;2719;53.624;9.786;2023-04-01T10:36:18;0.80;;;0.30;;
5391;SDS011;2719;53.624;9.786;2023-04-01T10:42:22;1.63;;;0.40;;
5391;SDS011;2719;53.624;9.786;2023-04-01T10:48:36;0.70;;;0.30;;
5391;SDS011;2719;53.624;9.786;2023-04-01T10:51:52;0.70;;;0.30;;
5391;SDS011;2719;53.624;9.786;2023-04-01T10:54:48;2.07;;;0.30;;
5391;SDS011;2719;53.624;9.786;2023-04-01T10:57:38;0.70;;;0.30;;
5391;SDS011;2719;53.624;9.786;2023-04-01T11:00:32;0.70;;;0.30;;
5391;SDS011;2719;53.624;9.786;2023-04-01T11:03:39;0.80;;;0.40;;
5391;SDS011;2719;53.624;9.786;2023-04-01T11:09:44;0.70;;;0.30;;
5391;SDS011;2719;53.624;9.786;2023-04-01T11:12:56;0.87;;;0.40;;
5391;SDS011;2719;53.624;9.786;2023-04-01T11:27:35;0.80;;;0.40;;
5391;SDS011;2719;53.624;9.786;2023-04-01T11:30:22;0.80;;;0.40;;
5391;SDS011;2719;53.624;9.786;2023-04-01T11:32:59;0.97;;;0.40;;
5391;SDS011;2719;53.624;9.786;2023-04-01T11:35:36;1.80;;;0.50;;
5391;SDS011;2719;53.624;9.786;2023-04-01T11:38:29;1.43;;;0.60;;
5391;SDS011;2719;53.624;9.786;2023-04-01T11:41:09;1.30;;;0.50;;
5391;SDS011;2719;53.624;9.786;2023-04-01T11:43:49;1.10;;;0.50;;
5391;SDS011;2719;53.624;9.786;2023-04-01T11:46:30;0.80;;;0.40;;
5391;SDS011;2719;53.624;9.786;2023-04-01T11:49:05;1.30;;;0.53;;
5391;SDS011;2719;53.624;9.786;2023-04-01T11:51:54;1.10;;;0.57;;
5391;SDS011;2719;53.624;9.786;2023-04-01T11:54:34;4.17;;;0.50;;
5391;SDS011;2719;53.624;9.786;2023-04-01T11:57:20;2.80;;;0.60;;
5391;SDS011;2719;53.624;9.786;2023-04-01T12:00:03;1.53;;;0.60;;
5391;SDS011;2719;53.624;9.786;2023-04-01T12:02:50;2.07;;;0.60;;
5391;SDS011;2719;53.624;9.786;2023-04-01T12:05:34;1.03;;;0.60;;
5391;SDS011;2719;53.624;9.786;2023-04-01T12:08:10;3.50;;;1.00;;
5391;SDS011;2719;53.624;9.786;2023-04-01T12:10:52;0.80;;;0.50;;
5391;SDS011;2719;53.624;9.786;2023-04-01T12:13:31;3.57;;;0.70;;
5391;SDS011;2719;53.624;9.786;2023-04-01T12:16:16;2.20;;;0.70;;
5391;SDS011;2719;53.624;9.786;2023-04-01T12:18:52;1.30;;;0.63;;
5391;SDS011;2719;53.624;9.786;2023-04-01T12:21:26;2.30;;;0.70;;
5391;SDS011;2719;53.624;9.786;2023-04-01T12:24:09;1.13;;;0.70;;
5391;SDS011;2719;53.624;9.786;2023-04-01T12:27:06;3.83;;;0.97;;
5391;SDS011;2719;53.624;9.786;2023-04-01T12:32:47;1.57;;;0.80;;
5391;SDS011;2719;53.624;9.786;2023-04-01T12:35:21;1.30;;;0.90;;
5391;SDS011;2719;53.624;9.786;2023-04-01T12:37:54;4.93;;;0.73;;
5391;SDS011;2719;53.624;9.786;2023-04-01T12:40:44;2.67;;;0.90;;
5391;SDS011;2719;53.624;9.786;2023-04-01T12:43:20;2.70;;;1.10;;
5391;SDS011;2719;53.624;9.786;2023-04-01T12:46:20;4.80;;;0.93;;
5391;SDS011;2719;53.624;9.786;2023-04-01T12:52:03;1.80;;;1.00;;
5391;SDS011;2719;53.624;9.786;2023-04-01T12:54:43;2.13;;;1.20;;
5391;SDS011;2719;53.624;9.786;2023-04-01T12:57:26;2.50;;;1.17;;
5391;SDS011;2719;53.624;9.786;2023-04-01T13:00:20;5.47;;;1.33;;
5391;SDS011;2719;53.624;9.786;2023-04-01T13:03:07;3.90;;;1.70;;
5391;SDS011;2719;53.624;9.786;2023-04-01T13:08:46;5.07;;;1.00;;
5391;SDS011;2719;53.624;9.786;2023-04-01T13:11:20;2.40;;;1.07;;
5391;SDS011;2719;53.624;9.786;2023-04-01T13:16:55;7.53;;;1.13;;
5391;SDS011;2719;53.624;9.786;2023-04-01T13:19:28;2.80;;;0.90;;
5391;SDS011;2719;53.624;9.786;2023-04-01T13:22:04;3.63;;;1.47;;
5391;SDS011;2719;53.624;9.786;2023-04-01T13:24:40;5.03;;;1.27;;
5391;SDS011;2719;53.624;9.786;2023-04-01T13:27:17;2.23;;;1.13;;
5391;SDS011;2719;53.624;9.786;2023-04-01T13:29:54;2.53;;;1.00;;
5391;SDS011;2719;53.624;9.786;2023-04-01T13:32:40;3.80;;;1.00;;
5391;SDS011;2719;53.624;9.786;2023-04-01T13:35:18;3.03;;;1.30;;
5391;SDS011;2719;53.624;9.786;2023-04-01T13:38:01;3.70;;;1.63;;
5391;SDS011;2719;53.624;9.786;2023-04-01T13:40:39;2.60;;;1.40;;
5391;SDS011;2719;53.624;9.786;2023-04-01T13:43:14;3.43;;;1.20;;
5391;SDS011;2719;53.624;9.786;2023-04-01T13:46:04;4.37;;;1.20;;
5391;SDS011;2719;53.624;9.786;2023-04-01T13:49:01;3.00;;;1.37;;
5391;SDS011;2719;53.624;9.786;2023-04-01T13:51:49;3.30;;;1.27;;
5391;SDS011;2719;53.624;9.786;2023-04-01T13:57:20;5.70;;;1.20;;
5391;SDS011;2719;53.624;9.786;2023-04-01T14:00:10;1.37;;;0.90;;
5391;SDS011;2719;53.624;9.786;2023-04-01T14:06:02;5.07;;;1.20;;
5391;SDS011;2719;53.624;9.786;2023-04-01T14:08:44;1.80;;;0.80;;
5391;SDS011;2719;53.624;9.786;2023-04-01T14:11:27;2.90;;;1.00;;
5391;SDS011;2719;53.624;9.786;2023-04-01T14:14:04;1.90;;;0.90;;
5391;SDS011;2719;53.624;9.786;2023-04-01T14:16:55;6.80;;;1.30;;
5391;SDS011;2719;53.624;9.786;2023-04-01T14:19:33;4.53;;;1.20;;
5391;SDS011;2719;53.624;9.786;2023-04-01T14:22:13;4.33;;;0.90;;
5391;SDS011;2719;53.624;9.786;2023-04-01T14:24:52;6.10;;;1.10;;
5391;SDS011;2719;53.624;9.786;2023-04-01T14:27:44;3.00;;;1.03;;
5391;SDS011;2719;53.624;9.786;2023-04-01T14:33:15;2.50;;;0.93;;
5391;SDS011;2719;53.624;9.786;2023-04-01T14:35:55;5.90;;;1.30;;
5391;SDS011;2719;53.624;9.786;2023-04-01T14:38:35;4.20;;;1.47;;
5391;SDS011;2719;53.624;9.786;2023-04-01T14:41:17;3.30;;;0.80;;
5391;SDS011;2719;53.624;9.786;2023-04-01T14:49:52;3.93;;;1.10;;
5391;SDS011;2719;53.624;9.786;2023-04-01T14:52:28;10.67;;;2.00;;
5391;SDS011;2719;53.624;9.786;2023-04-01T14:54:59;3.43;;;1.20;;
5391;SDS011;2719;53.624;9.786;2023-04-01T14:57:30;4.53;;;1.60;;
5391;SDS011;2719;53.624;9.786;2023-04-01T15:00:01;5.37;;;1.83;;
5391;SDS011;2719;53.624;9.786;2023-04-01T15:02:43;7.10;;;1.77;;
5391;SDS011;2719;53.624;9.786;2023-04-01T15:05:23;3.17;;;1.00;;
5391;SDS011;2719;53.624;9.786;2023-04-01T15:08:03;4.20;;;1.43;;
5391;SDS011;2719;53.624;9.786;2023-04-01T15:10:47;6.87;;;1.77;;
5391;SDS011;2719;53.624;9.786;2023-04-01T15:13:24;4.27;;;1.57;;
5391;SDS011;2719;53.624;9.786;2023-04-01T15:16:09;3.40;;;1.00;;
5391;SDS011;2719;53.624;9.786;2023-04-01T15:18:44;6.20;;;1.00;;
5391;SDS011;2719;53.624;9.786;2023-04-01T15:21:23;2.60;;;1.33;;
5391;SDS011;2719;53.624;9.786;2023-04-01T15:24:06;6.67;;;1.40;;
5391;SDS011;2719;53.624;9.786;2023-04-01T15:26:40;3.73;;;1.13;;
5391;SDS011;2719;53.624;9.786;2023-04-01T15:29:28;2.93;;;1.17;;
5391;SDS011;2719;53.624;9.786;2023-04-01T15:32:21;5.17;;;2.30;;
5391;SDS011;2719;53.624;9.786;2023-04-01T15:34:56;5.67;;;1.20;;
5391;SDS011;2719;53.624;9.786;2023-04-01T15:37:34;3.93;;;1.17;;
5391;SDS011;2719;53.624;9.786;2023-04-01T15:40:14;3.87;;;1.30;;
5391;SDS011;2719;53.624;9.786;2023-04-01T15:42:50;6.73;;;1.20;;
5391;SDS011;2719;53.624;9.786;2023-04-01T15:45:31;7.27;;;1.70;;
5391;SDS011;2719;53.624;9.786;2023-04-01T15:48:10;7.10;;;1.63;;
5391;SDS011;2719;53.624;9.786;2023-04-01T15:50:51;7.33;;;1.40;;
5391;SDS011;2719;53.624;9.786;2023-04-01T15:56:19;2.80;;;1.60;;
5391;SDS011;2719;53.624;9.786;2023-04-01T15:58:59;5.53;;;1.40;;
5391;SDS011;2719;53.624;9.786;2023-04-01T16:01:34;6.33;;;2.50;;
5391;SDS011;2719;53.624;9.786;2023-04-01T16:04:20;4.97;;;1.53;;
5391;SDS011;2719;53.624;9.786;2023-04-01T16:07:02;6.77;;;1.20;;
5391;SDS011;2719;53.624;9.786;2023-04-01T16:09:51;4.17;;;1.43;;
5391;SDS011;2719;53.624;9.786;2023-04-01T16:12:36;5.23;;;1.37;;
5391;SDS011;2719;53.624;9.786;2023-04-01T16:15:15;6.67;;;1.53;;
5391;SDS011;2719;53.624;9.786;2023-04-01T16:18:06;4.60;;;1.00;;
5391;SDS011;2719;53.624;9.786;2023-04-01T16:20:53;3.87;;;1.40;;
5391;SDS011;2719;53.624;9.786;2023-04-01T16:23:24;12.70;;;1.80;;
5391;SDS011;2719;53.624;9.786;2023-04-01T16:26:01;13.53;;;2.40;;
5391;SDS011;2719;53.624;9.786;2023-04-01T16:28:32;8.40;;;1.90;;
5391;SDS011;2719;53.624;9.786;2023-04-01T16:31:06;9.97;;;2.53;;
5391;SDS011;2719;53.624;9.786;2023-04-01T16:33:38;2.07;;;1.10;;
5391;SDS011;2719;53.624;9.786;2023-04-01T16:36:12;6.07;;;1.67;;
5391;SDS011;2719;53.624;9.786;2023-04-01T16:38:49;5.40;;;2.03;;
5391;SDS011;2719;53.624;9.786;2023-04-01T16:41:23;10.73;;;2.20;;
5391;SDS011;2719;53.624;9.786;2023-04-01T16:43:55;7.73;;;2.17;;
5391;SDS011;2719;53.624;9.786;2023-04-01T16:46:32;11.43;;;2.07;;
5391;SDS011;2719;53.624;9.786;2023-04-01T16:51:53;4.33;;;1.70;;
5391;SDS011;2719;53.624;9.786;2023-04-01T16:54:27;10.23;;;1.83;;
5391;SDS011;2719;53.624;9.786;2023-04-01T16:57:01;13.93;;;2.43;;
5391;SDS011;2719;53.624;9.786;2023-04-01T16:59:33;8.50;;;2.73;;
5391;SDS011;2719;53.624;9.786;2023-04-01T17:02:02;6.67;;;2.60;;
5391;SDS011;2719;53.624;9.786;2023-04-01T17:04:37;9.40;;;2.00;;
5391;SDS011;2719;53.624;9.786;2023-04-01T17:07:18;8.57;;;2.13;;
5391;SDS011;2719;53.624;9.786;2023-04-01T17:09:55;9.10;;;2.73;;
5391;SDS011;2719;53.624;9.786;2023-04-01T17:12:34;5.73;;;1.80;;
5391;SDS011;2719;53.624;9.786;2023-04-01T17:15:10;5.47;;;2.77;;
5391;SDS011;2719;53.624;9.786;2023-04-01T17:17:45;5.20;;;1.43;;
5391;SDS011;2719;53.624;9.786;2023-04-01T17:20:20;6.10;;;1.50;;
5391;SDS011;2719;53.624;9.786;2023-04-01T17:22:59;7.57;;;2.23;;
5391;SDS011;2719;53.624;9.786;2023-04-01T17:25:37;9.50;;;2.10;;
5391;SDS011;2719;53.624;9.786;2023-04-01T17:28:17;9.90;;;1.93;;
5391;SDS011;2719;53.624;9.786;2023-04-01T17:30:53;7.63;;;1.70;;